createdAt,value
2023-05-13T00:00:02.767Z,14.07
2023-05-13T00:01:03.102Z,14.06
2023-05-13T00:02:02.781Z,14.06
2023-05-13T00:03:02.732Z,14.05
2023-05-13T00:04:02.379Z,14.04
2023-05-13T00:05:01.954Z,14.02
2023-05-13T00:06:01.912Z,14.00
2023-05-13T00:07:02.394Z,13.99
2023-05-13T00:08:02.216Z,13.99
2023-05-13T00:09:02.129Z,13.95
2023-05-13T00:10:02.691Z,13.93
2023-05-13T00:11:02.275Z,13.93
2023-05-13T00:12:02.118Z,13.92
2023-05-13T00:13:02.631Z,13.89
2023-05-13T00:14:02.350Z,13.87
2023-05-13T00:15:02.887Z,13.81
2023-05-13T00:16:02.780Z,13.75
2023-05-13T00:17:02.491Z,13.70
2023-05-13T00:18:02.886Z,13.63
2023-05-13T00:19:01.765Z,13.57
2023-05-13T00:20:01.790Z,13.54
2023-05-13T00:21:01.765Z,13.50
2023-05-13T00:22:01.744Z,13.47
2023-05-13T00:23:02.275Z,13.42
2023-05-13T00:24:02.167Z,13.40
2023-05-13T00:25:02.583Z,13.36
2023-05-13T00:26:02.456Z,13.34
2023-05-13T00:27:02.640Z,13.32
2023-05-13T00:28:02.484Z,13.31
2023-05-13T00:29:02.617Z,13.35
2023-05-13T00:30:02.760Z,13.37
2023-05-13T00:31:02.679Z,13.40
2023-05-13T00:32:03.247Z,13.42
2023-05-13T00:33:02.770Z,13.42
2023-05-13T00:34:02.134Z,13.47
2023-05-13T00:35:02.428Z,13.49
2023-05-13T00:36:02.604Z,13.53
2023-05-13T00:37:02.189Z,13.58
2023-05-13T00:38:02.218Z,13.63
2023-05-13T00:39:02.637Z,13.65
2023-05-13T00:40:02.605Z,13.69
2023-05-13T00:41:02.621Z,13.71
2023-05-13T00:42:02.606Z,13.73
2023-05-13T00:43:02.674Z,13.74
2023-05-13T00:44:02.115Z,13.75
2023-05-13T00:45:02.123Z,13.77
2023-05-13T00:46:02.270Z,13.79
2023-05-13T00:47:02.215Z,13.80
2023-05-13T00:48:02.442Z,13.80
2023-05-13T00:49:02.249Z,13.79
2023-05-13T00:50:02.133Z,13.75
2023-05-13T00:51:02.385Z,13.76
2023-05-13T00:52:02.327Z,13.76
2023-05-13T00:53:02.361Z,13.75
2023-05-13T00:54:02.774Z,13.73
2023-05-13T00:55:02.781Z,13.72
2023-05-13T00:56:02.699Z,13.71
2023-05-13T00:57:02.668Z,13.74
2023-05-13T00:58:02.629Z,13.73
2023-05-13T00:59:02.003Z,13.71
2023-05-13T01:00:01.913Z,13.68
2023-05-13T01:01:01.848Z,13.66
2023-05-13T01:02:02.318Z,13.64
2023-05-13T01:03:02.330Z,13.57
2023-05-13T01:04:02.679Z,13.57
2023-05-13T01:05:02.578Z,13.56
2023-05-13T01:06:02.775Z,13.56
2023-05-13T01:07:02.850Z,13.56
2023-05-13T01:08:02.657Z,13.56
2023-05-13T01:09:02.095Z,13.56
2023-05-13T01:10:02.191Z,13.57
2023-05-13T01:11:02.050Z,13.59
2023-05-13T01:12:01.948Z,13.60
2023-05-13T01:13:02.254Z,13.60
2023-05-13T01:14:02.164Z,13.59
2023-05-13T01:15:02.243Z,13.55
2023-05-13T01:16:02.478Z,13.53
2023-05-13T01:17:02.235Z,13.52
2023-05-13T01:18:02.329Z,13.49
2023-05-13T01:19:02.414Z,13.47
2023-05-13T01:20:02.183Z,13.43
2023-05-13T01:21:02.086Z,13.40
2023-05-13T01:22:02.598Z,13.37
2023-05-13T01:23:02.545Z,13.35
2023-05-13T01:24:02.622Z,13.36
2023-05-13T01:25:02.635Z,13.37
2023-05-13T01:26:02.710Z,13.36
2023-05-13T01:27:02.646Z,13.33
2023-05-13T01:28:02.535Z,13.29
2023-05-13T01:29:02.219Z,13.29
2023-05-13T01:30:02.184Z,13.27
2023-05-13T01:31:02.355Z,13.28
2023-05-13T01:32:02.518Z,13.27
2023-05-13T01:33:02.442Z,13.24
2023-05-13T01:34:02.204Z,13.23
2023-05-13T01:35:02.387Z,13.19
2023-05-13T01:36:02.555Z,13.16
2023-05-13T01:37:02.471Z,13.13
2023-05-13T01:38:02.371Z,13.05
2023-05-13T01:39:02.516Z,13.02
2023-05-13T01:40:05.806Z,13.01
2023-05-13T01:41:02.441Z,13.01
2023-05-13T01:42:02.249Z,12.98
2023-05-13T01:43:02.365Z,12.91
2023-05-13T01:44:02.905Z,12.86
2023-05-13T01:45:02.686Z,12.85
2023-05-13T01:46:02.722Z,12.84
2023-05-13T01:47:02.648Z,12.82
2023-05-13T01:48:02.774Z,12.83
2023-05-13T01:49:02.407Z,12.81
2023-05-13T01:50:02.664Z,12.82
2023-05-13T01:51:02.624Z,12.81
2023-05-13T01:52:02.442Z,12.82
2023-05-13T01:53:02.295Z,12.80
2023-05-13T01:54:02.985Z,12.79
2023-05-13T01:55:02.869Z,12.77
2023-05-13T01:56:02.847Z,12.76
2023-05-13T01:57:03.072Z,12.76
2023-05-13T01:58:03.125Z,12.75
2023-05-13T01:59:03.053Z,12.73
2023-05-13T02:00:03.012Z,12.71
2023-05-13T02:01:02.673Z,12.67
2023-05-13T02:02:03.398Z,12.62
2023-05-13T02:03:03.209Z,12.59
2023-05-13T02:04:02.725Z,12.54
2023-05-13T02:05:02.240Z,12.52
2023-05-13T02:06:02.827Z,12.45
2023-05-13T02:07:02.468Z,12.37
2023-05-13T02:08:02.807Z,12.32
2023-05-13T02:09:02.379Z,12.29
2023-05-13T02:10:02.020Z,12.26
2023-05-13T02:11:01.938Z,12.23
2023-05-13T02:12:02.431Z,12.22
2023-05-13T02:13:01.924Z,12.21
2023-05-13T02:14:02.490Z,12.22
2023-05-13T02:15:02.359Z,12.20
2023-05-13T02:16:02.384Z,12.18
2023-05-13T02:17:02.277Z,12.13
2023-05-13T02:18:02.284Z,12.06
2023-05-13T02:19:03.083Z,12.00
2023-05-13T02:20:03.090Z,11.94
2023-05-13T02:21:03.085Z,11.93
2023-05-13T02:22:03.007Z,11.94
2023-05-13T02:23:03.208Z,11.95
2023-05-13T02:24:02.391Z,11.97
2023-05-13T02:25:02.101Z,11.99
2023-05-13T02:26:01.936Z,11.99
2023-05-13T02:27:02.416Z,12.02
2023-05-13T02:28:02.498Z,12.03
2023-05-13T02:29:02.605Z,12.04
2023-05-13T02:30:02.271Z,12.07
2023-05-13T02:31:02.233Z,12.05
2023-05-13T02:32:02.073Z,12.02
2023-05-13T02:33:02.710Z,12.01
2023-05-13T02:34:03.059Z,11.98
2023-05-13T02:35:02.797Z,11.94
2023-05-13T02:36:02.775Z,11.95
2023-05-13T02:37:02.583Z,11.94
2023-05-13T02:38:02.493Z,11.95
2023-05-13T02:39:03.125Z,11.94
2023-05-13T02:40:03.063Z,11.93
2023-05-13T02:41:02.892Z,11.90
2023-05-13T02:42:02.772Z,11.88
2023-05-13T02:43:02.656Z,11.85
2023-05-13T02:44:03.323Z,11.85
2023-05-13T02:45:02.800Z,11.87
2023-05-13T02:46:03.476Z,11.84
2023-05-13T02:47:02.947Z,11.86
2023-05-13T02:48:02.925Z,11.82
2023-05-13T02:49:02.476Z,11.80
2023-05-13T02:50:01.898Z,11.78
2023-05-13T02:51:01.856Z,11.76
2023-05-13T02:52:01.848Z,11.72
2023-05-13T02:53:02.332Z,11.59
2023-05-13T02:54:02.853Z,11.60
2023-05-13T02:55:02.603Z,11.57
2023-05-13T02:56:02.440Z,11.55
2023-05-13T02:57:02.368Z,11.49
2023-05-13T02:58:02.376Z,11.47
2023-05-13T02:59:02.940Z,11.45
2023-05-13T03:00:02.875Z,11.40
2023-05-13T03:01:02.695Z,11.36
2023-05-13T03:02:02.706Z,11.29
2023-05-13T03:03:02.682Z,11.23
2023-05-13T03:04:03.148Z,11.21
2023-05-13T03:05:02.790Z,11.22
2023-05-13T03:06:03.104Z,11.27
2023-05-13T03:07:02.795Z,11.28
2023-05-13T03:08:02.735Z,11.26
2023-05-13T03:09:01.962Z,11.24
2023-05-13T03:10:02.562Z,11.18
2023-05-13T03:11:02.301Z,11.13
2023-05-13T03:12:02.288Z,11.11
2023-05-13T03:13:02.340Z,11.11
2023-05-13T03:14:02.153Z,11.11
2023-05-13T03:15:02.195Z,11.14
2023-05-13T03:16:02.836Z,11.15
2023-05-13T03:17:02.813Z,11.18
2023-05-13T03:18:02.682Z,11.18
2023-05-13T03:19:02.215Z,11.20
2023-05-13T03:20:02.842Z,11.20
2023-05-13T03:21:02.542Z,11.19
2023-05-13T03:22:02.444Z,11.16
2023-05-13T03:23:02.388Z,11.10
2023-05-13T03:24:02.725Z,11.05
2023-05-13T03:25:01.767Z,11.06
2023-05-13T03:26:02.302Z,11.07
2023-05-13T03:27:01.965Z,11.09
2023-05-13T03:28:02.002Z,11.12
2023-05-13T03:29:01.832Z,11.14
2023-05-13T03:30:02.311Z,11.15
2023-05-13T03:31:02.298Z,11.13
2023-05-13T03:32:02.321Z,11.11
2023-05-13T03:33:02.472Z,11.06
2023-05-13T03:34:02.444Z,11.02
2023-05-13T03:35:01.762Z,10.99
2023-05-13T03:36:01.970Z,10.95
2023-05-13T03:37:01.916Z,10.92
2023-05-13T03:38:01.933Z,10.88
2023-05-13T03:39:01.983Z,10.85
2023-05-13T03:40:02.096Z,10.81
2023-05-13T03:41:01.871Z,10.75
2023-05-13T03:42:02.338Z,10.69
2023-05-13T03:43:02.352Z,10.66
2023-05-13T03:44:02.357Z,10.68
2023-05-13T03:45:02.124Z,10.71
2023-05-13T03:46:02.021Z,10.72
2023-05-13T03:47:02.116Z,10.75
2023-05-13T03:48:02.249Z,10.77
2023-05-13T03:49:02.102Z,10.78
2023-05-13T03:50:02.769Z,10.79
2023-05-13T03:51:02.765Z,10.78
2023-05-13T03:52:02.788Z,10.78
2023-05-13T03:53:02.793Z,10.76
2023-05-13T03:54:02.852Z,10.73
2023-05-13T03:55:02.934Z,10.68
2023-05-13T03:56:03.002Z,10.63
2023-05-13T03:57:03.093Z,10.57
2023-05-13T03:58:03.085Z,10.50
2023-05-13T03:59:02.991Z,10.44
2023-05-13T04:00:02.053Z,10.40
2023-05-13T04:01:02.289Z,10.38
2023-05-13T04:02:02.022Z,10.36
2023-05-13T04:03:02.084Z,10.32
2023-05-13T04:04:01.762Z,10.29
2023-05-13T04:05:02.239Z,10.22
2023-05-13T04:06:02.261Z,10.19
2023-05-13T04:07:02.291Z,10.20
2023-05-13T04:08:02.369Z,10.21
2023-05-13T04:09:02.287Z,10.21
2023-05-13T04:10:03.319Z,10.24
2023-05-13T04:11:03.053Z,10.26
2023-05-13T04:12:03.294Z,10.29
2023-05-13T04:13:03.003Z,10.30
2023-05-13T04:14:02.940Z,10.33
2023-05-13T04:15:02.603Z,10.36
2023-05-13T04:16:02.576Z,10.38
2023-05-13T04:17:02.773Z,10.43
2023-05-13T04:18:02.758Z,10.44
2023-05-13T04:19:02.925Z,10.46
2023-05-13T04:20:02.497Z,10.44
2023-05-13T04:21:02.525Z,10.44
2023-05-13T04:22:02.419Z,10.46
2023-05-13T04:23:02.494Z,10.45
2023-05-13T04:24:02.069Z,10.46
2023-05-13T04:25:02.915Z,10.45
2023-05-13T04:26:02.775Z,10.42
2023-05-13T04:27:02.887Z,10.40
2023-05-13T04:28:02.960Z,10.36
2023-05-13T04:29:02.586Z,10.29
2023-05-13T04:30:02.180Z,10.21
2023-05-13T04:31:02.283Z,10.16
2023-05-13T04:32:02.000Z,10.11
2023-05-13T04:33:02.121Z,10.09
2023-05-13T04:34:02.360Z,10.12
2023-05-13T04:35:02.415Z,10.13
2023-05-13T04:36:02.115Z,10.14
2023-05-13T04:37:02.304Z,10.15
2023-05-13T04:38:02.369Z,10.13
2023-05-13T04:39:02.305Z,10.11
2023-05-13T04:40:03.034Z,10.08
2023-05-13T04:41:02.609Z,10.04
2023-05-13T04:42:02.648Z,10.01
2023-05-13T04:43:02.583Z,10.00
2023-05-13T04:44:02.837Z,10.03
2023-05-13T04:45:02.442Z,10.08
2023-05-13T04:46:02.602Z,10.13
2023-05-13T04:47:02.364Z,10.17
2023-05-13T04:48:02.339Z,10.21
2023-05-13T04:49:02.546Z,10.25
2023-05-13T04:50:02.450Z,10.27
2023-05-13T04:51:02.509Z,10.31
2023-05-13T04:52:02.753Z,10.32
2023-05-13T04:53:02.868Z,10.35
2023-05-13T04:54:02.714Z,10.36
2023-05-13T04:55:01.842Z,10.37
2023-05-13T04:56:01.945Z,10.38
2023-05-13T04:57:01.979Z,10.39
2023-05-13T04:58:02.493Z,10.40
2023-05-13T04:59:02.209Z,10.39
2023-05-13T05:00:02.872Z,10.43
2023-05-13T05:01:02.658Z,10.43
2023-05-13T05:02:02.858Z,10.46
2023-05-13T05:03:02.908Z,10.49
2023-05-13T05:04:02.988Z,10.54
2023-05-13T05:05:03.067Z,10.57
2023-05-13T05:06:02.834Z,10.63
2023-05-13T05:07:02.900Z,10.68
2023-05-13T05:08:03.001Z,10.74
2023-05-13T05:09:02.735Z,10.78
2023-05-13T05:10:03.541Z,10.82
2023-05-13T05:11:03.382Z,10.86
2023-05-13T05:12:03.416Z,10.91
2023-05-13T05:13:03.451Z,10.93
2023-05-13T05:14:03.521Z,11.00
2023-05-13T05:15:02.378Z,11.03
2023-05-13T05:16:02.957Z,11.09
2023-05-13T05:17:02.545Z,11.14
2023-05-13T05:18:02.734Z,11.18
2023-05-13T05:19:02.677Z,11.22
2023-05-13T05:20:03.092Z,11.27
2023-05-13T05:21:03.162Z,11.32
2023-05-13T05:22:03.433Z,11.38
2023-05-13T05:23:03.321Z,11.44
2023-05-13T05:24:03.110Z,11.50
2023-05-13T05:25:02.228Z,11.56
2023-05-13T05:26:11.008Z,11.62
2023-05-13T05:27:02.556Z,11.67
2023-05-13T05:28:02.553Z,11.73
2023-05-13T05:29:02.726Z,11.79
2023-05-13T05:30:02.576Z,11.81
2023-05-13T05:31:02.836Z,11.82
2023-05-13T05:32:02.657Z,11.86
2023-05-13T05:33:02.813Z,11.92
2023-05-13T05:34:02.592Z,11.92
2023-05-13T05:35:02.629Z,11.97
2023-05-13T05:36:02.591Z,12.01
2023-05-13T05:37:02.519Z,12.06
2023-05-13T05:38:02.559Z,12.08
2023-05-13T05:39:02.581Z,12.13
2023-05-13T05:40:02.281Z,12.19
2023-05-13T05:41:02.357Z,12.23
2023-05-13T05:42:02.504Z,12.28
2023-05-13T05:43:02.339Z,12.31
2023-05-13T05:44:02.472Z,12.36
2023-05-13T05:45:02.534Z,12.43
2023-05-13T05:46:02.657Z,12.50
2023-05-13T05:47:02.588Z,12.55
2023-05-13T05:48:02.753Z,12.62
2023-05-13T05:49:02.859Z,12.68
2023-05-13T05:50:02.999Z,12.75
2023-05-13T05:51:03.177Z,12.82
2023-05-13T05:52:02.836Z,12.91
2023-05-13T05:53:03.254Z,12.99
2023-05-13T05:54:02.782Z,13.07
2023-05-13T05:55:02.622Z,13.16
2023-05-13T05:56:02.723Z,13.24
2023-05-13T05:57:02.904Z,13.32
2023-05-13T05:58:03.016Z,13.39
2023-05-13T05:59:03.002Z,13.46
2023-05-13T06:00:02.876Z,13.55
2023-05-13T06:01:02.695Z,13.62
2023-05-13T06:02:03.000Z,13.71
2023-05-13T06:03:03.319Z,13.76
2023-05-13T06:04:02.762Z,13.84
2023-05-13T06:05:01.865Z,13.92
2023-05-13T06:06:02.276Z,14.00
2023-05-13T06:07:02.248Z,14.08
2023-05-13T06:08:02.041Z,14.16
2023-05-13T06:09:02.093Z,14.23
2023-05-13T06:10:02.168Z,14.29
2023-05-13T06:11:02.249Z,14.37
2023-05-13T06:12:02.299Z,14.46
2023-05-13T06:13:02.436Z,14.54
2023-05-13T06:14:02.178Z,14.64
2023-05-13T06:15:02.347Z,14.72
2023-05-13T06:16:02.368Z,14.78
2023-05-13T06:17:02.404Z,14.85
2023-05-13T06:18:02.545Z,14.89
2023-05-13T06:19:02.466Z,14.97
2023-05-13T06:20:02.858Z,15.06
2023-05-13T06:21:02.915Z,15.13
2023-05-13T06:22:04.148Z,15.22
2023-05-13T06:23:03.179Z,15.29
2023-05-13T06:24:02.752Z,15.37
2023-05-13T06:25:02.429Z,15.44
2023-05-13T06:26:02.535Z,15.50
2023-05-13T06:27:02.706Z,15.55
2023-05-13T06:28:03.109Z,15.61
2023-05-13T06:29:02.528Z,15.69
2023-05-13T06:30:02.529Z,15.76
2023-05-13T06:31:02.390Z,15.84
2023-05-13T06:32:02.470Z,15.91
2023-05-13T06:33:02.825Z,15.99
2023-05-13T06:34:02.788Z,16.07
2023-05-13T06:35:02.975Z,16.16
2023-05-13T06:36:02.798Z,16.23
2023-05-13T06:37:03.033Z,16.30
2023-05-13T06:38:03.155Z,16.36
2023-05-13T06:39:03.089Z,16.44
2023-05-13T06:40:03.030Z,16.52
2023-05-13T06:41:03.191Z,16.60
2023-05-13T06:42:03.036Z,16.68
2023-05-13T06:43:03.013Z,16.76
2023-05-13T06:44:03.143Z,16.84
2023-05-13T06:45:02.308Z,16.92
2023-05-13T06:46:02.423Z,16.99
2023-05-13T06:47:02.550Z,17.06
2023-05-13T06:48:02.381Z,17.11
2023-05-13T06:49:02.580Z,17.18
2023-05-13T06:50:02.363Z,17.25
2023-05-13T06:51:02.488Z,17.33
2023-05-13T06:52:02.627Z,17.40
2023-05-13T06:53:02.448Z,17.46
2023-05-13T06:54:02.592Z,17.52
2023-05-13T06:55:02.380Z,17.56
2023-05-13T06:56:02.496Z,17.63
2023-05-13T06:57:02.497Z,17.67
2023-05-13T06:58:02.483Z,17.72
2023-05-13T06:59:02.515Z,17.77
2023-05-13T07:00:02.725Z,17.79
2023-05-13T07:01:02.359Z,17.83
2023-05-13T07:02:02.781Z,17.89
2023-05-13T07:03:02.968Z,17.94
2023-05-13T07:04:02.535Z,17.99
2023-05-13T07:05:02.119Z,18.05
2023-05-13T07:06:02.200Z,18.13
2023-05-13T07:07:01.830Z,18.19
2023-05-13T07:08:01.814Z,18.20
2023-05-13T07:09:05.372Z,18.27
2023-05-13T07:10:02.164Z,18.30
2023-05-13T07:11:02.312Z,18.33
2023-05-13T07:12:02.125Z,18.35
2023-05-13T07:13:02.181Z,18.40
2023-05-13T07:14:02.366Z,18.43
2023-05-13T07:15:02.113Z,18.49
2023-05-13T07:16:02.192Z,18.52
2023-05-13T07:17:02.116Z,18.58
2023-05-13T07:18:02.004Z,18.64
2023-05-13T07:19:02.097Z,18.70
2023-05-13T07:20:02.880Z,18.74
2023-05-13T07:21:03.068Z,18.81
2023-05-13T07:22:02.814Z,18.87
2023-05-13T07:23:02.960Z,18.92
2023-05-13T07:24:02.950Z,18.98
2023-05-13T07:25:02.165Z,19.02
2023-05-13T07:26:02.174Z,19.06
2023-05-13T07:27:01.868Z,19.12
2023-05-13T07:28:01.742Z,19.21
2023-05-13T07:29:01.838Z,19.29
2023-05-13T07:30:02.584Z,19.36
2023-05-13T07:31:02.792Z,19.43
2023-05-13T07:32:02.482Z,19.50
2023-05-13T07:33:02.777Z,19.57
2023-05-13T07:34:02.789Z,19.66
2023-05-13T07:35:02.943Z,19.76
2023-05-13T07:36:02.786Z,19.86
2023-05-13T07:37:02.283Z,19.95
2023-05-13T07:38:02.318Z,20.06
2023-05-13T07:39:02.488Z,20.17
2023-05-13T07:40:02.271Z,20.24
2023-05-13T07:41:02.257Z,20.30
2023-05-13T07:42:02.385Z,20.35
2023-05-13T07:43:02.127Z,20.34
2023-05-13T07:44:02.250Z,20.30
2023-05-13T07:45:02.651Z,20.30
2023-05-13T07:46:02.882Z,20.34
2023-05-13T07:47:02.920Z,20.35
2023-05-13T07:48:02.533Z,20.38
2023-05-13T07:49:02.884Z,20.40
2023-05-13T07:50:02.758Z,20.41
2023-05-13T07:51:02.794Z,20.47
2023-05-13T07:52:02.500Z,20.55
2023-05-13T07:53:02.817Z,20.66
2023-05-13T07:54:02.781Z,20.76
2023-05-13T07:55:02.368Z,20.87
2023-05-13T07:56:02.484Z,20.96
2023-05-13T07:57:01.740Z,21.06
2023-05-13T07:58:01.801Z,21.15
2023-05-13T07:59:02.334Z,21.23
2023-05-13T08:00:03.009Z,21.30
2023-05-13T08:01:02.946Z,21.37
2023-05-13T08:02:02.987Z,21.43
2023-05-13T08:03:02.714Z,21.50
2023-05-13T08:04:03.145Z,21.55
2023-05-13T08:05:02.191Z,21.63
2023-05-13T08:06:02.323Z,21.70
2023-05-13T08:07:02.409Z,21.77
2023-05-13T08:08:02.036Z,21.79
2023-05-13T08:09:02.118Z,21.76
2023-05-13T08:10:02.010Z,21.73
2023-05-13T08:11:02.144Z,21.74
2023-05-13T08:12:02.223Z,21.82
2023-05-13T08:13:02.510Z,21.90
2023-05-13T08:14:02.573Z,22.00
2023-05-13T08:15:03.286Z,22.04
2023-05-13T08:16:03.067Z,22.01
2023-05-13T08:17:03.182Z,22.02
2023-05-13T08:18:02.946Z,22.07
2023-05-13T08:19:02.918Z,22.15
2023-05-13T08:20:02.036Z,22.21
2023-05-13T08:21:02.016Z,22.28
2023-05-13T08:22:02.012Z,22.37
2023-05-13T08:23:02.087Z,22.45
2023-05-13T08:24:02.552Z,22.53
2023-05-13T08:25:02.936Z,22.60
2023-05-13T08:26:02.941Z,22.65
2023-05-13T08:27:03.126Z,22.74
2023-05-13T08:28:02.748Z,22.82
2023-05-13T08:29:02.818Z,22.90
2023-05-13T08:30:03.111Z,22.97
2023-05-13T08:31:02.919Z,22.97
2023-05-13T08:32:03.388Z,23.08
2023-05-13T08:33:03.289Z,23.14
2023-05-13T08:34:02.880Z,23.19
2023-05-13T08:35:02.179Z,23.23
2023-05-13T08:36:02.418Z,23.24
2023-05-13T08:37:02.635Z,23.26
2023-05-13T08:38:02.654Z,23.27
2023-05-13T08:39:02.636Z,23.24
2023-05-13T08:40:02.546Z,23.25
2023-05-13T08:41:02.584Z,23.27
2023-05-13T08:42:02.652Z,23.27
2023-05-13T08:43:02.816Z,23.29
2023-05-13T08:44:02.361Z,23.34
2023-05-13T08:45:02.510Z,23.40
2023-05-13T08:46:02.643Z,23.46
2023-05-13T08:47:02.550Z,23.53
2023-05-13T08:48:02.568Z,23.60
2023-05-13T08:49:02.675Z,23.68
2023-05-13T08:50:02.618Z,23.77
2023-05-13T08:51:02.980Z,23.81
2023-05-13T08:52:02.920Z,23.80
2023-05-13T08:53:02.408Z,23.82
2023-05-13T08:54:02.592Z,23.88
2023-05-13T08:55:02.399Z,23.96
2023-05-13T08:56:02.415Z,24.02
2023-05-13T08:57:02.166Z,24.10
2023-05-13T08:58:02.568Z,24.18
2023-05-13T08:59:02.140Z,24.25
2023-05-13T09:00:03.019Z,24.30
2023-05-13T09:01:03.306Z,24.30
2023-05-13T09:02:03.132Z,24.37
2023-05-13T09:03:03.463Z,24.39
2023-05-13T09:04:03.286Z,24.46
2023-05-13T09:05:02.601Z,24.52
2023-05-13T09:06:02.732Z,24.55
2023-05-13T09:07:02.814Z,24.62
2023-05-13T09:08:02.810Z,24.67
2023-05-13T09:09:02.252Z,24.73
2023-05-13T09:10:02.924Z,24.79
2023-05-13T09:11:03.068Z,24.82
2023-05-13T09:12:03.309Z,24.83
2023-05-13T09:13:03.209Z,24.83
2023-05-13T09:14:03.088Z,24.89
2023-05-13T09:15:02.170Z,24.94
2023-05-13T09:16:02.535Z,24.90
2023-05-13T09:17:01.945Z,24.85
2023-05-13T09:18:02.017Z,24.77
2023-05-13T09:19:01.986Z,24.72
2023-05-13T09:20:03.007Z,24.64
2023-05-13T09:21:02.897Z,24.50
2023-05-13T09:22:03.073Z,24.43
2023-05-13T09:23:02.542Z,24.44
2023-05-13T09:24:03.020Z,24.43
2023-05-13T09:25:03.199Z,24.46
2023-05-13T09:26:02.906Z,24.50
2023-05-13T09:27:03.020Z,24.55
2023-05-13T09:28:03.356Z,24.63
2023-05-13T09:29:02.899Z,24.70
2023-05-13T09:30:02.790Z,24.76
2023-05-13T09:31:02.446Z,24.83
2023-05-13T09:32:02.647Z,24.87
2023-05-13T09:33:02.773Z,24.89
2023-05-13T09:34:02.750Z,24.85
2023-05-13T09:35:03.008Z,24.81
2023-05-13T09:36:02.592Z,24.80
2023-05-13T09:37:02.631Z,24.75
2023-05-13T09:38:02.972Z,24.70
2023-05-13T09:39:02.625Z,24.64
2023-05-13T09:40:02.526Z,24.59
2023-05-13T09:41:02.112Z,24.56
2023-05-13T09:42:04.341Z,24.53
2023-05-13T09:43:02.318Z,24.53
2023-05-13T09:44:02.604Z,24.53
2023-05-13T09:45:02.362Z,24.51
2023-05-13T09:46:02.436Z,24.47
2023-05-13T09:47:02.814Z,24.42
2023-05-13T09:48:02.665Z,24.43
2023-05-13T09:49:02.868Z,24.46
2023-05-13T09:50:03.456Z,24.50
2023-05-13T09:51:03.609Z,24.53
2023-05-13T09:52:03.395Z,24.56
2023-05-13T09:53:03.541Z,24.64
2023-05-13T09:54:03.527Z,24.74
2023-05-13T09:55:03.138Z,24.82
2023-05-13T09:56:03.333Z,24.87
2023-05-13T09:57:03.036Z,24.89
2023-05-13T09:58:03.235Z,24.88
2023-05-13T09:59:03.459Z,24.85
2023-05-13T10:00:02.815Z,24.72
2023-05-13T10:01:02.544Z,24.60
2023-05-13T10:02:02.909Z,24.51
2023-05-13T10:03:03.096Z,24.40
2023-05-13T10:04:02.481Z,24.31
2023-05-13T10:05:02.915Z,24.27
2023-05-13T10:06:03.669Z,24.22
2023-05-13T10:07:02.584Z,24.20
2023-05-13T10:08:02.830Z,24.21
2023-05-13T10:09:02.994Z,24.20
2023-05-13T10:10:02.981Z,24.19
2023-05-13T10:11:03.078Z,24.25
2023-05-13T10:12:02.631Z,24.37
2023-05-13T10:13:02.856Z,24.49
2023-05-13T10:14:03.057Z,24.58
2023-05-13T10:15:02.732Z,24.68
2023-05-13T10:16:02.627Z,24.83
2023-05-13T10:17:02.255Z,24.99
2023-05-13T10:18:02.816Z,25.12
2023-05-13T10:19:02.651Z,25.25
2023-05-13T10:20:03.061Z,25.39
2023-05-13T10:21:03.073Z,25.49
2023-05-13T10:22:02.579Z,25.53
2023-05-13T10:23:02.823Z,25.50
2023-05-13T10:24:03.128Z,25.51
2023-05-13T10:25:03.136Z,25.58
2023-05-13T10:26:03.230Z,25.61
2023-05-13T10:27:02.972Z,25.64
2023-05-13T10:28:03.122Z,25.63
2023-05-13T10:29:03.031Z,25.60
2023-05-13T10:30:04.043Z,25.57
2023-05-13T10:31:02.809Z,25.55
2023-05-13T10:32:03.025Z,25.48
2023-05-13T10:33:02.705Z,25.45
2023-05-13T10:34:03.071Z,25.43
2023-05-13T10:35:03.021Z,25.39
2023-05-13T10:36:02.995Z,25.32
2023-05-13T10:37:02.936Z,25.28
2023-05-13T10:38:02.862Z,25.22
2023-05-13T10:39:03.000Z,25.13
2023-05-13T10:40:02.367Z,25.03
2023-05-13T10:41:02.442Z,24.93
2023-05-13T10:42:02.571Z,24.83
2023-05-13T10:43:02.839Z,24.70
2023-05-13T10:44:03.008Z,24.56
2023-05-13T10:45:02.000Z,24.42
2023-05-13T10:46:02.217Z,24.31
2023-05-13T10:47:02.129Z,24.24
2023-05-13T10:48:02.365Z,24.23
2023-05-13T10:49:02.324Z,24.22
2023-05-13T10:50:03.160Z,24.19
2023-05-13T10:51:03.043Z,24.15
2023-05-13T10:52:02.580Z,24.11
2023-05-13T10:53:03.162Z,24.10
2023-05-13T10:54:03.069Z,24.07
2023-05-13T10:55:02.329Z,24.06
2023-05-13T10:56:02.470Z,24.08
2023-05-13T10:57:02.273Z,24.01
2023-05-13T10:58:02.621Z,23.88
2023-05-13T10:59:02.688Z,23.78
2023-05-13T11:00:02.661Z,23.69
2023-05-13T11:01:02.940Z,23.56
2023-05-13T11:02:02.746Z,23.35
2023-05-13T11:03:02.949Z,22.94
2023-05-13T11:04:02.936Z,22.59
2023-05-13T11:05:02.366Z,22.22
2023-05-13T11:06:02.342Z,22.06
2023-05-13T11:07:02.384Z,21.88
2023-05-13T11:08:02.299Z,21.66
2023-05-13T11:09:02.904Z,21.49
2023-05-13T11:10:01.598Z,21.37
2023-05-13T11:11:01.876Z,21.23
2023-05-13T11:12:01.907Z,21.13
2023-05-13T11:13:01.785Z,20.97
2023-05-13T11:14:01.708Z,20.87
2023-05-13T11:15:02.283Z,20.75
2023-05-13T11:16:02.099Z,20.58
2023-05-13T11:17:01.972Z,20.45
2023-05-13T11:18:01.878Z,20.33
2023-05-13T11:19:01.804Z,20.19
2023-05-13T11:20:01.835Z,20.01
2023-05-13T11:21:03.216Z,19.85
2023-05-13T11:22:01.794Z,19.76
2023-05-13T11:23:02.261Z,19.74
2023-05-13T11:24:01.808Z,19.75
2023-05-13T11:25:02.383Z,19.72
2023-05-13T11:26:02.322Z,19.72
2023-05-13T11:27:02.956Z,19.74
2023-05-13T11:28:02.705Z,19.74
2023-05-13T11:29:02.583Z,19.60
2023-05-13T11:30:01.879Z,19.42
2023-05-13T11:31:02.014Z,19.31
2023-05-13T11:32:01.902Z,19.20
2023-05-13T11:33:02.011Z,19.11
2023-05-13T11:34:02.097Z,19.06
2023-05-13T11:35:01.987Z,19.07
2023-05-13T11:36:02.371Z,19.06
2023-05-13T11:37:01.929Z,19.06
2023-05-13T11:38:02.022Z,19.01
2023-05-13T11:39:02.328Z,18.95
2023-05-13T11:40:02.863Z,18.90
2023-05-13T11:41:02.729Z,18.83
2023-05-13T11:42:02.716Z,18.77
2023-05-13T11:43:02.623Z,18.69
2023-05-13T11:44:02.739Z,18.64
2023-05-13T11:45:01.905Z,18.60
2023-05-13T11:46:02.128Z,18.49
2023-05-13T11:47:02.131Z,18.34
2023-05-13T11:48:02.281Z,18.15
2023-05-13T11:49:02.126Z,18.02
2023-05-13T11:50:02.215Z,17.96
2023-05-13T11:51:02.142Z,17.96
2023-05-13T11:52:02.186Z,17.97
2023-05-13T11:53:02.107Z,18.00
2023-05-13T11:54:02.060Z,18.04
2023-05-13T11:55:01.897Z,18.07
2023-05-13T11:56:01.947Z,18.08
2023-05-13T11:57:01.934Z,18.12
2023-05-13T11:58:02.104Z,18.06
2023-05-13T11:59:01.788Z,18.06
2023-05-13T12:00:02.463Z,18.09
2023-05-13T12:01:02.250Z,18.15
2023-05-13T12:02:02.371Z,18.16
2023-05-13T12:03:02.480Z,18.19
2023-05-13T12:04:02.418Z,18.18
2023-05-13T12:05:02.650Z,18.21
2023-05-13T12:06:02.893Z,18.20
2023-05-13T12:07:02.656Z,18.20
2023-05-13T12:08:02.817Z,18.22
2023-05-13T12:09:02.952Z,18.24
2023-05-13T12:10:02.773Z,18.23
2023-05-13T12:11:02.910Z,18.25
2023-05-13T12:12:02.583Z,18.30
2023-05-13T12:13:02.654Z,18.35
2023-05-13T12:14:02.799Z,18.41
2023-05-13T12:15:02.944Z,18.48
2023-05-13T12:16:03.185Z,18.54
2023-05-13T12:17:03.037Z,18.63
2023-05-13T12:18:03.110Z,18.70
2023-05-13T12:19:03.236Z,18.73
2023-05-13T12:20:03.022Z,18.76
2023-05-13T12:21:03.105Z,18.80
2023-05-13T12:22:05.461Z,18.82
2023-05-13T12:23:03.109Z,18.83
2023-05-13T12:24:02.857Z,18.84
2023-05-13T12:25:02.705Z,18.83
2023-05-13T12:26:02.647Z,18.80
2023-05-13T12:27:02.749Z,18.78
2023-05-13T12:28:02.785Z,18.78
2023-05-13T12:29:03.020Z,18.80
2023-05-13T12:30:03.096Z,18.83
2023-05-13T12:31:03.536Z,18.85
2023-05-13T12:32:03.344Z,18.88
2023-05-13T12:33:03.110Z,18.91
2023-05-13T12:34:03.283Z,18.96
2023-05-13T12:35:03.368Z,19.03
2023-05-13T12:36:03.473Z,19.13
2023-05-13T12:37:03.689Z,19.24
2023-05-13T12:38:03.237Z,19.36
2023-05-13T12:39:03.202Z,19.50
2023-05-13T12:40:02.982Z,19.62
2023-05-13T12:41:03.123Z,19.68
2023-05-13T12:42:03.199Z,19.80
2023-05-13T12:43:02.879Z,19.84
2023-05-13T12:44:02.704Z,19.89
2023-05-13T12:45:03.402Z,19.98
2023-05-13T12:46:03.120Z,19.99
2023-05-13T12:47:03.345Z,20.03
2023-05-13T12:48:03.595Z,20.10
2023-05-13T12:49:03.509Z,20.11
2023-05-13T12:50:03.096Z,20.07
2023-05-13T12:51:02.669Z,20.08
2023-05-13T12:52:02.793Z,20.11